X  Fermer Données météorologiques d'aviation de Metar     EKVJ Stauning Airport
Température
5°C Température
4°C Point de rosée
93% Humidité



Vitesse
0 M/S
1 MPH
2 KM/H
1 KTS



40°
NE
Conditions actuelles

Brouillard Brouillard
Pression 1019.92 (hPa) - 30.12 (inHg)
Visibilité 3.1 (mile) - 5 (km)
Aéroport
Code de l'aéroport EKVJ

Emplacement: Stauning Airport
Distance: 14 (km)

Metar:
EKVJ 011520Z 04001KT 5000 BR SCT006 BKN020 05/04 Q1020

Temps: 12-01-2020 16:20 CET